sensor_id;sensor_type;location;lat;lon;timestamp;P1;durP1;ratioP1;P2;durP2;ratioP2
72584;SDS011;73873;40.084;32.908;2024-03-08T00:01:35;37.80;;;16.08;;
72584;SDS011;73873;40.084;32.908;2024-03-08T00:04:06;43.17;;;17.48;;
72584;SDS011;73873;40.084;32.908;2024-03-08T00:06:33;37.13;;;15.15;;
72584;SDS011;73873;40.084;32.908;2024-03-08T00:09:00;38.53;;;17.17;;
72584;SDS011;73873;40.084;32.908;2024-03-08T00:11:27;46.40;;;17.63;;
72584;SDS011;73873;40.084;32.908;2024-03-08T00:13:54;41.58;;;17.73;;
72584;SDS011;73873;40.084;32.908;2024-03-08T00:16:21;42.38;;;17.05;;
72584;SDS011;73873;40.084;32.908;2024-03-08T00:18:48;41.40;;;17.38;;
72584;SDS011;73873;40.084;32.908;2024-03-08T00:21:15;39.90;;;16.70;;
72584;SDS011;73873;40.084;32.908;2024-03-08T00:23:42;40.23;;;17.80;;
72584;SDS011;73873;40.084;32.908;2024-03-08T00:26:09;37.30;;;16.05;;
72584;SDS011;73873;40.084;32.908;2024-03-08T00:28:36;36.58;;;13.98;;
72584;SDS011;73873;40.084;32.908;2024-03-08T00:31:03;30.70;;;12.35;;
72584;SDS011;73873;40.084;32.908;2024-03-08T00:33:30;41.15;;;15.75;;
72584;SDS011;73873;40.084;32.908;2024-03-08T00:35:57;41.00;;;16.70;;
72584;SDS011;73873;40.084;32.908;2024-03-08T00:38:24;39.47;;;16.35;;
72584;SDS011;73873;40.084;32.908;2024-03-08T00:40:51;40.75;;;17.23;;
72584;SDS011;73873;40.084;32.908;2024-03-08T00:43:18;42.28;;;17.15;;
72584;SDS011;73873;40.084;32.908;2024-03-08T00:45:45;41.00;;;17.95;;
72584;SDS011;73873;40.084;32.908;2024-03-08T00:48:12;39.90;;;16.80;;
72584;SDS011;73873;40.084;32.908;2024-03-08T00:50:39;38.22;;;15.77;;
72584;SDS011;73873;40.084;32.908;2024-03-08T00:53:06;34.72;;;14.95;;
72584;SDS011;73873;40.084;32.908;2024-03-08T00:55:33;42.70;;;15.90;;
72584;SDS011;73873;40.084;32.908;2024-03-08T00:58:00;35.78;;;14.95;;
72584;SDS011;73873;40.084;32.908;2024-03-08T01:00:27;35.47;;;14.03;;
72584;SDS011;73873;40.084;32.908;2024-03-08T01:02:54;31.92;;;13.38;;
72584;SDS011;73873;40.084;32.908;2024-03-08T01:05:21;37.15;;;14.60;;
72584;SDS011;73873;40.084;32.908;2024-03-08T01:07:48;30.27;;;12.43;;
72584;SDS011;73873;40.084;32.908;2024-03-08T01:10:16;32.10;;;13.18;;
72584;SDS011;73873;40.084;32.908;2024-03-08T01:12:43;33.00;;;14.67;;
72584;SDS011;73873;40.084;32.908;2024-03-08T01:15:10;37.85;;;15.88;;
72584;SDS011;73873;40.084;32.908;2024-03-08T01:17:38;39.40;;;16.75;;
72584;SDS011;73873;40.084;32.908;2024-03-08T01:20:06;40.72;;;17.63;;
72584;SDS011;73873;40.084;32.908;2024-03-08T01:22:35;41.13;;;17.20;;
72584;SDS011;73873;40.084;32.908;2024-03-08T01:25:02;41.73;;;18.10;;
72584;SDS011;73873;40.084;32.908;2024-03-08T01:27:29;43.20;;;17.58;;
72584;SDS011;73873;40.084;32.908;2024-03-08T01:29:56;43.50;;;17.35;;
72584;SDS011;73873;40.084;32.908;2024-03-08T01:32:23;40.03;;;17.55;;
72584;SDS011;73873;40.084;32.908;2024-03-08T01:34:50;43.42;;;17.48;;
72584;SDS011;73873;40.084;32.908;2024-03-08T01:37:17;41.50;;;17.93;;
72584;SDS011;73873;40.084;32.908;2024-03-08T01:39:44;41.08;;;16.50;;
72584;SDS011;73873;40.084;32.908;2024-03-08T01:42:11;43.65;;;17.65;;
72584;SDS011;73873;40.084;32.908;2024-03-08T01:44:40;37.58;;;16.75;;
72584;SDS011;73873;40.084;32.908;2024-03-08T01:47:07;35.85;;;15.15;;
72584;SDS011;73873;40.084;32.908;2024-03-08T01:49:34;38.17;;;16.40;;
72584;SDS011;73873;40.084;32.908;2024-03-08T01:52:02;32.70;;;14.32;;
72584;SDS011;73873;40.084;32.908;2024-03-08T01:54:32;32.70;;;13.23;;
72584;SDS011;73873;40.084;32.908;2024-03-08T01:57:00;29.15;;;12.45;;
72584;SDS011;73873;40.084;32.908;2024-03-08T01:59:27;36.40;;;14.52;;
72584;SDS011;73873;40.084;32.908;2024-03-08T02:01:55;38.43;;;15.33;;
72584;SDS011;73873;40.084;32.908;2024-03-08T02:04:24;34.33;;;16.02;;
72584;SDS011;73873;40.084;32.908;2024-03-08T02:06:51;35.60;;;15.90;;
72584;SDS011;73873;40.084;32.908;2024-03-08T02:09:18;36.03;;;15.70;;
72584;SDS011;73873;40.084;32.908;2024-03-08T02:11:45;37.33;;;15.00;;
72584;SDS011;73873;40.084;32.908;2024-03-08T02:14:12;39.77;;;16.80;;
72584;SDS011;73873;40.084;32.908;2024-03-08T02:16:39;41.05;;;17.05;;
72584;SDS011;73873;40.084;32.908;2024-03-08T02:19:06;41.38;;;16.80;;
72584;SDS011;73873;40.084;32.908;2024-03-08T02:21:33;44.83;;;17.70;;
72584;SDS011;73873;40.084;32.908;2024-03-08T02:24:00;44.88;;;19.00;;
72584;SDS011;73873;40.084;32.908;2024-03-08T02:26:28;48.27;;;18.67;;
72584;SDS011;73873;40.084;32.908;2024-03-08T02:28:55;49.10;;;19.13;;
72584;SDS011;73873;40.084;32.908;2024-03-08T02:31:22;47.65;;;18.80;;
72584;SDS011;73873;40.084;32.908;2024-03-08T02:33:49;39.58;;;16.10;;
72584;SDS011;73873;40.084;32.908;2024-03-08T02:36:16;39.28;;;16.08;;
72584;SDS011;73873;40.084;32.908;2024-03-08T02:38:43;36.10;;;14.10;;
72584;SDS011;73873;40.084;32.908;2024-03-08T02:41:10;36.47;;;15.63;;
72584;SDS011;73873;40.084;32.908;2024-03-08T02:43:37;36.42;;;15.32;;
72584;SDS011;73873;40.084;32.908;2024-03-08T02:46:04;43.13;;;17.33;;
72584;SDS011;73873;40.084;32.908;2024-03-08T02:48:31;46.33;;;18.75;;
72584;SDS011;73873;40.084;32.908;2024-03-08T02:50:58;45.15;;;16.90;;
72584;SDS011;73873;40.084;32.908;2024-03-08T02:53:25;44.63;;;18.17;;
72584;SDS011;73873;40.084;32.908;2024-03-08T02:55:52;38.70;;;15.52;;
72584;SDS011;73873;40.084;32.908;2024-03-08T02:58:19;43.22;;;18.30;;
72584;SDS011;73873;40.084;32.908;2024-03-08T03:00:46;41.97;;;16.65;;
72584;SDS011;73873;40.084;32.908;2024-03-08T03:03:13;44.03;;;18.27;;
72584;SDS011;73873;40.084;32.908;2024-03-08T03:05:40;44.33;;;16.92;;
72584;SDS011;73873;40.084;32.908;2024-03-08T03:08:09;38.40;;;15.55;;
72584;SDS011;73873;40.084;32.908;2024-03-08T03:10:36;43.60;;;17.83;;
72584;SDS011;73873;40.084;32.908;2024-03-08T03:13:04;46.83;;;18.60;;
72584;SDS011;73873;40.084;32.908;2024-03-08T03:15:31;45.00;;;18.20;;
72584;SDS011;73873;40.084;32.908;2024-03-08T03:17:58;47.72;;;18.58;;
72584;SDS011;73873;40.084;32.908;2024-03-08T03:20:26;45.30;;;17.48;;
72584;SDS011;73873;40.084;32.908;2024-03-08T03:22:53;43.75;;;17.60;;
72584;SDS011;73873;40.084;32.908;2024-03-08T03:25:20;43.17;;;16.60;;
72584;SDS011;73873;40.084;32.908;2024-03-08T03:27:48;42.03;;;17.83;;
72584;SDS011;73873;40.084;32.908;2024-03-08T03:30:15;45.80;;;18.42;;
72584;SDS011;73873;40.084;32.908;2024-03-08T03:32:42;47.53;;;17.70;;
72584;SDS011;73873;40.084;32.908;2024-03-08T03:35:09;39.92;;;15.30;;
72584;SDS011;73873;40.084;32.908;2024-03-08T03:37:36;38.33;;;16.92;;
72584;SDS011;73873;40.084;32.908;2024-03-08T03:40:03;41.23;;;17.00;;
72584;SDS011;73873;40.084;32.908;2024-03-08T03:42:31;40.03;;;15.50;;
72584;SDS011;73873;40.084;32.908;2024-03-08T03:44:58;37.85;;;15.10;;
72584;SDS011;73873;40.084;32.908;2024-03-08T03:47:25;40.95;;;16.60;;
72584;SDS011;73873;40.084;32.908;2024-03-08T03:49:52;38.17;;;16.27;;
72584;SDS011;73873;40.084;32.908;2024-03-08T03:52:19;40.03;;;16.60;;
72584;SDS011;73873;40.084;32.908;2024-03-08T03:54:46;35.25;;;14.27;;
72584;SDS011;73873;40.084;32.908;2024-03-08T03:57:13;38.80;;;14.13;;
72584;SDS011;73873;40.084;32.908;2024-03-08T03:59:40;38.20;;;16.00;;
72584;SDS011;73873;40.084;32.908;2024-03-08T04:02:07;33.97;;;15.00;;
72584;SDS011;73873;40.084;32.908;2024-03-08T04:04:34;34.33;;;14.53;;
72584;SDS011;73873;40.084;32.908;2024-03-08T04:07:01;34.70;;;14.00;;
72584;SDS011;73873;40.084;32.908;2024-03-08T04:09:28;31.90;;;13.48;;
72584;SDS011;73873;40.084;32.908;2024-03-08T04:11:55;36.65;;;15.57;;
72584;SDS011;73873;40.084;32.908;2024-03-08T04:14:22;35.15;;;14.48;;
72584;SDS011;73873;40.084;32.908;2024-03-08T04:16:50;35.37;;;15.87;;
72584;SDS011;73873;40.084;32.908;2024-03-08T04:19:17;37.83;;;16.13;;
72584;SDS011;73873;40.084;32.908;2024-03-08T04:21:43;34.47;;;14.98;;
72584;SDS011;73873;40.084;32.908;2024-03-08T04:24:10;36.78;;;16.05;;
72584;SDS011;73873;40.084;32.908;2024-03-08T04:26:37;39.50;;;17.00;;
72584;SDS011;73873;40.084;32.908;2024-03-08T04:29:04;43.03;;;17.80;;
72584;SDS011;73873;40.084;32.908;2024-03-08T04:31:31;45.83;;;18.98;;
72584;SDS011;73873;40.084;32.908;2024-03-08T04:33:58;48.95;;;19.58;;
72584;SDS011;73873;40.084;32.908;2024-03-08T04:36:25;42.47;;;18.48;;
72584;SDS011;73873;40.084;32.908;2024-03-08T04:38:53;42.15;;;17.98;;
72584;SDS011;73873;40.084;32.908;2024-03-08T04:41:19;43.57;;;18.47;;
72584;SDS011;73873;40.084;32.908;2024-03-08T04:43:46;39.63;;;16.58;;
72584;SDS011;73873;40.084;32.908;2024-03-08T04:46:14;38.38;;;16.33;;
72584;SDS011;73873;40.084;32.908;2024-03-08T04:48:40;44.17;;;18.15;;
72584;SDS011;73873;40.084;32.908;2024-03-08T04:51:07;43.75;;;18.48;;
72584;SDS011;73873;40.084;32.908;2024-03-08T04:53:35;44.07;;;18.47;;
72584;SDS011;73873;40.084;32.908;2024-03-08T04:56:03;43.35;;;18.13;;
72584;SDS011;73873;40.084;32.908;2024-03-08T04:58:36;45.80;;;18.90;;
72584;SDS011;73873;40.084;32.908;2024-03-08T05:01:03;47.40;;;19.63;;
72584;SDS011;73873;40.084;32.908;2024-03-08T05:03:30;44.25;;;19.20;;
72584;SDS011;73873;40.084;32.908;2024-03-08T05:05:57;51.40;;;20.30;;
72584;SDS011;73873;40.084;32.908;2024-03-08T05:08:24;50.45;;;22.52;;
72584;SDS011;73873;40.084;32.908;2024-03-08T05:10:51;49.75;;;21.48;;
72584;SDS011;73873;40.084;32.908;2024-03-08T05:13:18;56.30;;;21.05;;
72584;SDS011;73873;40.084;32.908;2024-03-08T05:15:48;52.88;;;21.08;;
72584;SDS011;73873;40.084;32.908;2024-03-08T05:18:15;46.70;;;19.97;;
72584;SDS011;73873;40.084;32.908;2024-03-08T05:20:42;47.25;;;20.23;;
72584;SDS011;73873;40.084;32.908;2024-03-08T05:23:10;45.47;;;19.08;;
72584;SDS011;73873;40.084;32.908;2024-03-08T05:25:37;43.70;;;18.00;;
72584;SDS011;73873;40.084;32.908;2024-03-08T05:28:04;43.50;;;18.08;;
72584;SDS011;73873;40.084;32.908;2024-03-08T05:30:31;39.10;;;16.03;;
72584;SDS011;73873;40.084;32.908;2024-03-08T05:32:58;37.80;;;16.70;;
72584;SDS011;73873;40.084;32.908;2024-03-08T05:35:26;47.28;;;18.45;;
72584;SDS011;73873;40.084;32.908;2024-03-08T05:37:53;41.47;;;17.25;;
72584;SDS011;73873;40.084;32.908;2024-03-08T05:40:20;37.60;;;17.23;;
72584;SDS011;73873;40.084;32.908;2024-03-08T05:42:48;39.03;;;16.87;;
72584;SDS011;73873;40.084;32.908;2024-03-08T05:45:16;79.35;;;30.05;;
72584;SDS011;73873;40.084;32.908;2024-03-08T05:47:43;79.32;;;29.90;;
72584;SDS011;73873;40.084;32.908;2024-03-08T05:50:10;57.55;;;23.42;;
72584;SDS011;73873;40.084;32.908;2024-03-08T05:52:37;50.42;;;22.17;;
72584;SDS011;73873;40.084;32.908;2024-03-08T05:55:04;52.53;;;22.63;;
72584;SDS011;73873;40.084;32.908;2024-03-08T05:57:31;50.90;;;21.67;;
72584;SDS011;73873;40.084;32.908;2024-03-08T05:59:58;51.10;;;21.85;;
72584;SDS011;73873;40.084;32.908;2024-03-08T06:02:25;49.55;;;21.30;;
72584;SDS011;73873;40.084;32.908;2024-03-08T06:04:52;57.28;;;24.20;;
72584;SDS011;73873;40.084;32.908;2024-03-08T06:07:19;60.57;;;24.37;;
72584;SDS011;73873;40.084;32.908;2024-03-08T06:09:46;58.33;;;24.83;;
72584;SDS011;73873;40.084;32.908;2024-03-08T06:12:13;56.13;;;23.75;;
72584;SDS011;73873;40.084;32.908;2024-03-08T06:14:40;54.40;;;23.40;;
72584;SDS011;73873;40.084;32.908;2024-03-08T06:17:07;63.53;;;24.30;;
72584;SDS011;73873;40.084;32.908;2024-03-08T06:19:34;59.43;;;23.67;;
72584;SDS011;73873;40.084;32.908;2024-03-08T06:22:01;57.13;;;24.20;;
72584;SDS011;73873;40.084;32.908;2024-03-08T06:24:28;48.80;;;20.20;;
72584;SDS011;73873;40.084;32.908;2024-03-08T06:26:55;57.47;;;22.80;;
72584;SDS011;73873;40.084;32.908;2024-03-08T06:29:22;61.67;;;25.42;;
72584;SDS011;73873;40.084;32.908;2024-03-08T06:31:49;62.20;;;23.47;;
72584;SDS011;73873;40.084;32.908;2024-03-08T06:34:19;62.67;;;24.95;;
72584;SDS011;73873;40.084;32.908;2024-03-08T06:36:46;67.07;;;25.38;;
72584;SDS011;73873;40.084;32.908;2024-03-08T06:39:13;65.53;;;26.50;;
72584;SDS011;73873;40.084;32.908;2024-03-08T06:41:40;59.92;;;25.83;;
72584;SDS011;73873;40.084;32.908;2024-03-08T06:44:07;62.13;;;24.20;;
72584;SDS011;73873;40.084;32.908;2024-03-08T06:46:35;58.83;;;23.77;;
72584;SDS011;73873;40.084;32.908;2024-03-08T06:49:02;58.78;;;24.85;;
72584;SDS011;73873;40.084;32.908;2024-03-08T06:51:29;60.15;;;24.90;;
72584;SDS011;73873;40.084;32.908;2024-03-08T06:53:56;63.28;;;26.08;;
72584;SDS011;73873;40.084;32.908;2024-03-08T06:56:23;65.87;;;25.33;;
72584;SDS011;73873;40.084;32.908;2024-03-08T06:58:50;66.30;;;26.27;;
72584;SDS011;73873;40.084;32.908;2024-03-08T07:01:17;53.88;;;24.70;;
72584;SDS011;73873;40.084;32.908;2024-03-08T07:03:44;61.05;;;25.48;;
72584;SDS011;73873;40.084;32.908;2024-03-08T07:06:11;60.72;;;25.67;;
72584;SDS011;73873;40.084;32.908;2024-03-08T07:08:39;68.77;;;29.23;;
72584;SDS011;73873;40.084;32.908;2024-03-08T07:11:06;68.43;;;28.13;;
72584;SDS011;73873;40.084;32.908;2024-03-08T07:13:33;54.78;;;23.25;;
72584;SDS011;73873;40.084;32.908;2024-03-08T07:16:00;51.78;;;21.67;;
72584;SDS011;73873;40.084;32.908;2024-03-08T07:18:28;45.60;;;21.40;;
72584;SDS011;73873;40.084;32.908;2024-03-08T07:20:55;47.60;;;21.40;;
72584;SDS011;73873;40.084;32.908;2024-03-08T07:23:22;50.33;;;21.60;;
72584;SDS011;73873;40.084;32.908;2024-03-08T07:25:49;51.80;;;21.02;;
72584;SDS011;73873;40.084;32.908;2024-03-08T07:28:16;49.90;;;21.42;;
72584;SDS011;73873;40.084;32.908;2024-03-08T07:30:43;51.33;;;21.58;;
72584;SDS011;73873;40.084;32.908;2024-03-08T07:33:11;44.53;;;20.70;;
72584;SDS011;73873;40.084;32.908;2024-03-08T07:35:39;44.42;;;20.33;;
72584;SDS011;73873;40.084;32.908;2024-03-08T07:38:10;55.22;;;23.42;;
72584;SDS011;73873;40.084;32.908;2024-03-08T07:40:40;56.13;;;21.52;;
72584;SDS011;73873;40.084;32.908;2024-03-08T07:43:08;50.95;;;23.73;;
72584;SDS011;73873;40.084;32.908;2024-03-08T07:45:35;45.27;;;20.53;;
72584;SDS011;73873;40.084;32.908;2024-03-08T07:48:02;38.45;;;18.02;;
72584;SDS011;73873;40.084;32.908;2024-03-08T07:50:30;42.45;;;18.75;;
72584;SDS011;73873;40.084;32.908;2024-03-08T07:52:57;39.80;;;18.45;;
72584;SDS011;73873;40.084;32.908;2024-03-08T07:55:24;44.53;;;19.42;;
72584;SDS011;73873;40.084;32.908;2024-03-08T07:57:52;38.50;;;18.43;;
72584;SDS011;73873;40.084;32.908;2024-03-08T08:00:19;43.78;;;18.58;;
72584;SDS011;73873;40.084;32.908;2024-03-08T08:02:46;39.95;;;17.67;;
72584;SDS011;73873;40.084;32.908;2024-03-08T08:05:13;40.45;;;17.92;;
72584;SDS011;73873;40.084;32.908;2024-03-08T08:07:43;38.53;;;17.23;;
72584;SDS011;73873;40.084;32.908;2024-03-08T08:10:11;34.93;;;16.10;;
72584;SDS011;73873;40.084;32.908;2024-03-08T08:12:39;35.85;;;16.05;;
72584;SDS011;73873;40.084;32.908;2024-03-08T08:15:06;35.25;;;15.25;;
72584;SDS011;73873;40.084;32.908;2024-03-08T08:17:33;36.65;;;16.25;;
72584;SDS011;73873;40.084;32.908;2024-03-08T08:20:00;35.67;;;16.92;;
72584;SDS011;73873;40.084;32.908;2024-03-08T08:22:28;35.83;;;16.00;;
72584;SDS011;73873;40.084;32.908;2024-03-08T08:24:54;35.58;;;16.55;;
72584;SDS011;73873;40.084;32.908;2024-03-08T08:27:21;37.25;;;16.67;;
72584;SDS011;73873;40.084;32.908;2024-03-08T08:29:48;27.80;;;13.68;;
72584;SDS011;73873;40.084;32.908;2024-03-08T08:32:15;32.10;;;14.18;;
72584;SDS011;73873;40.084;32.908;2024-03-08T08:34:43;25.87;;;12.40;;
72584;SDS011;73873;40.084;32.908;2024-03-08T08:37:11;31.17;;;13.90;;
72584;SDS011;73873;40.084;32.908;2024-03-08T08:39:38;29.58;;;12.80;;
72584;SDS011;73873;40.084;32.908;2024-03-08T08:42:05;29.70;;;13.45;;
72584;SDS011;73873;40.084;32.908;2024-03-08T08:44:32;32.17;;;14.52;;
72584;SDS011;73873;40.084;32.908;2024-03-08T08:46:59;28.63;;;13.90;;
72584;SDS011;73873;40.084;32.908;2024-03-08T08:49:37;31.38;;;15.55;;
72584;SDS011;73873;40.084;32.908;2024-03-08T08:52:04;29.98;;;14.60;;
72584;SDS011;73873;40.084;32.908;2024-03-08T08:54:42;33.47;;;14.57;;
72584;SDS011;73873;40.084;32.908;2024-03-08T08:57:11;35.47;;;15.32;;
72584;SDS011;73873;40.084;32.908;2024-03-08T08:59:38;38.73;;;16.57;;
72584;SDS011;73873;40.084;32.908;2024-03-08T09:02:08;37.92;;;16.63;;
72584;SDS011;73873;40.084;32.908;2024-03-08T09:04:38;42.45;;;21.20;;
72584;SDS011;73873;40.084;32.908;2024-03-08T09:07:05;37.58;;;16.70;;
72584;SDS011;73873;40.084;32.908;2024-03-08T09:09:33;34.90;;;16.63;;
72584;SDS011;73873;40.084;32.908;2024-03-08T09:11:59;39.30;;;17.43;;
72584;SDS011;73873;40.084;32.908;2024-03-08T09:14:27;38.63;;;17.20;;
72584;SDS011;73873;40.084;32.908;2024-03-08T09:16:54;35.40;;;16.25;;
72584;SDS011;73873;40.084;32.908;2024-03-08T09:26:41;31.83;;;16.20;;
72584;SDS011;73873;40.084;32.908;2024-03-08T09:29:08;38.60;;;17.98;;
72584;SDS011;73873;40.084;32.908;2024-03-08T09:31:35;36.33;;;17.55;;
72584;SDS011;73873;40.084;32.908;2024-03-08T09:34:02;39.90;;;19.35;;
72584;SDS011;73873;40.084;32.908;2024-03-08T09:36:29;36.03;;;17.90;;
72584;SDS011;73873;40.084;32.908;2024-03-08T09:38:56;38.92;;;18.33;;
72584;SDS011;73873;40.084;32.908;2024-03-08T09:41:23;46.03;;;19.70;;
72584;SDS011;73873;40.084;32.908;2024-03-08T09:43:50;39.83;;;19.60;;
72584;SDS011;73873;40.084;32.908;2024-03-08T09:46:18;40.83;;;19.75;;
72584;SDS011;73873;40.084;32.908;2024-03-08T09:48:46;40.80;;;17.93;;
72584;SDS011;73873;40.084;32.908;2024-03-08T09:51:13;33.13;;;15.70;;
72584;SDS011;73873;40.084;32.908;2024-03-08T09:53:40;35.67;;;15.68;;
72584;SDS011;73873;40.084;32.908;2024-03-08T09:56:08;31.67;;;15.43;;
72584;SDS011;73873;40.084;32.908;2024-03-08T09:58:35;30.42;;;14.10;;
72584;SDS011;73873;40.084;32.908;2024-03-08T10:01:03;29.20;;;14.67;;
72584;SDS011;73873;40.084;32.908;2024-03-08T10:03:30;26.95;;;13.60;;
72584;SDS011;73873;40.084;32.908;2024-03-08T10:05:57;25.02;;;12.30;;
72584;SDS011;73873;40.084;32.908;2024-03-08T10:08:24;29.00;;;14.10;;
72584;SDS011;73873;40.084;32.908;2024-03-08T10:10:51;29.38;;;14.50;;
72584;SDS011;73873;40.084;32.908;2024-03-08T10:13:19;30.33;;;14.30;;
72584;SDS011;73873;40.084;32.908;2024-03-08T10:15:46;29.00;;;14.10;;
72584;SDS011;73873;40.084;32.908;2024-03-08T10:18:13;27.17;;;11.88;;
72584;SDS011;73873;40.084;32.908;2024-03-08T10:20:40;24.30;;;12.20;;
72584;SDS011;73873;40.084;32.908;2024-03-08T10:23:07;26.48;;;12.20;;
72584;SDS011;73873;40.084;32.908;2024-03-08T10:25:37;27.07;;;12.30;;
72584;SDS011;73873;40.084;32.908;2024-03-08T10:28:05;23.58;;;11.38;;
72584;SDS011;73873;40.084;32.908;2024-03-08T10:30:32;21.67;;;11.45;;
72584;SDS011;73873;40.084;32.908;2024-03-08T10:32:59;24.60;;;11.55;;
72584;SDS011;73873;40.084;32.908;2024-03-08T10:35:26;24.83;;;11.32;;
72584;SDS011;73873;40.084;32.908;2024-03-08T10:37:53;22.70;;;10.57;;
72584;SDS011;73873;40.084;32.908;2024-03-08T10:40:23;19.42;;;9.20;;
72584;SDS011;73873;40.084;32.908;2024-03-08T10:42:55;19.05;;;9.50;;
72584;SDS011;73873;40.084;32.908;2024-03-08T10:45:30;19.55;;;9.50;;
72584;SDS011;73873;40.084;32.908;2024-03-08T10:48:08;15.60;;;7.72;;
72584;SDS011;73873;40.084;32.908;2024-03-08T10:50:44;16.33;;;7.83;;
72584;SDS011;73873;40.084;32.908;2024-03-08T10:53:13;16.80;;;8.30;;
72584;SDS011;73873;40.084;32.908;2024-03-08T10:55:41;17.88;;;7.93;;
72584;SDS011;73873;40.084;32.908;2024-03-08T10:58:10;17.77;;;8.45;;
72584;SDS011;73873;40.084;32.908;2024-03-08T11:00:37;15.75;;;7.50;;
72584;SDS011;73873;40.084;32.908;2024-03-08T11:03:05;15.13;;;7.60;;
72584;SDS011;73873;40.084;32.908;2024-03-08T11:05:36;16.33;;;8.20;;
72584;SDS011;73873;40.084;32.908;2024-03-08T11:10:52;14.52;;;7.70;;
72584;SDS011;73873;40.084;32.908;2024-03-08T11:13:33;16.55;;;8.00;;
72584;SDS011;73873;40.084;32.908;2024-03-08T11:16:00;19.90;;;8.17;;
72584;SDS011;73873;40.084;32.908;2024-03-08T11:18:28;19.42;;;9.10;;
72584;SDS011;73873;40.084;32.908;2024-03-08T11:20:55;17.30;;;8.38;;
72584;SDS011;73873;40.084;32.908;2024-03-08T11:23:22;19.48;;;9.10;;
72584;SDS011;73873;40.084;32.908;2024-03-08T11:25:49;21.10;;;9.15;;
72584;SDS011;73873;40.084;32.908;2024-03-08T11:28:17;17.50;;;7.90;;
72584;SDS011;73873;40.084;32.908;2024-03-08T11:31:22;19.75;;;8.00;;
72584;SDS011;73873;40.084;32.908;2024-03-08T11:33:34;19.92;;;9.50;;
72584;SDS011;73873;40.084;32.908;2024-03-08T11:38:33;13.00;;;6.35;;
72584;SDS011;73873;40.084;32.908;2024-03-08T11:41:10;12.00;;;5.60;;
72584;SDS011;73873;40.084;32.908;2024-03-08T11:43:39;10.13;;;4.97;;
72584;SDS011;73873;40.084;32.908;2024-03-08T11:46:10;12.75;;;6.20;;
72584;SDS011;73873;40.084;32.908;2024-03-08T11:48:37;13.23;;;6.10;;
72584;SDS011;73873;40.084;32.908;2024-03-08T11:51:06;11.77;;;5.45;;
72584;SDS011;73873;40.084;32.908;2024-03-08T11:53:33;11.77;;;5.20;;
72584;SDS011;73873;40.084;32.908;2024-03-08T11:56:08;10.57;;;5.00;;
72584;SDS011;73873;40.084;32.908;2024-03-08T11:58:36;11.27;;;5.18;;
72584;SDS011;73873;40.084;32.908;2024-03-08T12:01:07;9.68;;;4.40;;
72584;SDS011;73873;40.084;32.908;2024-03-08T12:03:35;8.13;;;4.05;;
72584;SDS011;73873;40.084;32.908;2024-03-08T12:06:02;10.23;;;4.80;;
72584;SDS011;73873;40.084;32.908;2024-03-08T12:08:30;11.75;;;4.78;;
72584;SDS011;73873;40.084;32.908;2024-03-08T12:10:58;8.98;;;4.65;;
72584;SDS011;73873;40.084;32.908;2024-03-08T12:13:26;9.68;;;4.93;;
72584;SDS011;73873;40.084;32.908;2024-03-08T12:15:53;12.82;;;5.32;;
72584;SDS011;73873;40.084;32.908;2024-03-08T12:18:20;10.17;;;5.03;;
72584;SDS011;73873;40.084;32.908;2024-03-08T12:20:47;11.82;;;5.45;;
72584;SDS011;73873;40.084;32.908;2024-03-08T12:23:14;11.63;;;6.10;;
72584;SDS011;73873;40.084;32.908;2024-03-08T12:25:42;12.68;;;6.50;;
72584;SDS011;73873;40.084;32.908;2024-03-08T12:28:09;12.85;;;6.65;;
72584;SDS011;73873;40.084;32.908;2024-03-08T12:30:56;13.23;;;6.80;;
72584;SDS011;73873;40.084;32.908;2024-03-08T12:33:23;13.18;;;7.00;;
72584;SDS011;73873;40.084;32.908;2024-03-08T12:35:53;12.73;;;6.55;;
72584;SDS011;73873;40.084;32.908;2024-03-08T12:38:22;14.02;;;6.93;;
72584;SDS011;73873;40.084;32.908;2024-03-08T12:40:50;13.43;;;7.00;;
72584;SDS011;73873;40.084;32.908;2024-03-08T12:43:21;15.17;;;7.63;;
72584;SDS011;73873;40.084;32.908;2024-03-08T12:45:48;12.65;;;7.40;;
72584;SDS011;73873;40.084;32.908;2024-03-08T12:48:15;20.10;;;8.70;;
72584;SDS011;73873;40.084;32.908;2024-03-08T12:50:42;16.17;;;8.55;;
72584;SDS011;73873;40.084;32.908;2024-03-08T12:53:09;18.45;;;9.00;;
72584;SDS011;73873;40.084;32.908;2024-03-08T12:55:36;17.70;;;8.73;;
72584;SDS011;73873;40.084;32.908;2024-03-08T12:58:03;17.52;;;8.77;;
72584;SDS011;73873;40.084;32.908;2024-03-08T13:00:30;17.20;;;9.18;;
72584;SDS011;73873;40.084;32.908;2024-03-08T13:02:57;20.52;;;8.23;;
72584;SDS011;73873;40.084;32.908;2024-03-08T13:05:24;17.90;;;9.57;;
72584;SDS011;73873;40.084;32.908;2024-03-08T13:07:51;19.50;;;9.77;;
72584;SDS011;73873;40.084;32.908;2024-03-08T13:10:18;20.33;;;9.57;;
72584;SDS011;73873;40.084;32.908;2024-03-08T13:12:45;18.98;;;9.27;;
72584;SDS011;73873;40.084;32.908;2024-03-08T13:15:14;16.65;;;8.20;;
72584;SDS011;73873;40.084;32.908;2024-03-08T13:17:41;17.50;;;9.18;;
72584;SDS011;73873;40.084;32.908;2024-03-08T13:20:08;19.27;;;9.07;;
72584;SDS011;73873;40.084;32.908;2024-03-08T13:22:35;23.52;;;10.70;;
72584;SDS011;73873;40.084;32.908;2024-03-08T13:25:02;20.75;;;10.00;;
72584;SDS011;73873;40.084;32.908;2024-03-08T13:27:30;19.60;;;9.57;;
72584;SDS011;73873;40.084;32.908;2024-03-08T13:29:57;17.67;;;8.88;;
72584;SDS011;73873;40.084;32.908;2024-03-08T13:32:24;17.60;;;8.90;;
72584;SDS011;73873;40.084;32.908;2024-03-08T13:34:51;17.95;;;8.45;;
72584;SDS011;73873;40.084;32.908;2024-03-08T13:37:18;17.67;;;8.52;;
72584;SDS011;73873;40.084;32.908;2024-03-08T13:39:45;16.90;;;8.10;;
72584;SDS011;73873;40.084;32.908;2024-03-08T13:42:12;17.33;;;7.82;;
72584;SDS011;73873;40.084;32.908;2024-03-08T13:44:43;17.10;;;8.40;;
72584;SDS011;73873;40.084;32.908;2024-03-08T13:47:10;16.25;;;7.38;;
72584;SDS011;73873;40.084;32.908;2024-03-08T13:49:37;15.13;;;7.43;;
72584;SDS011;73873;40.084;32.908;2024-03-08T13:52:04;13.68;;;7.38;;
72584;SDS011;73873;40.084;32.908;2024-03-08T13:54:32;15.00;;;7.05;;
72584;SDS011;73873;40.084;32.908;2024-03-08T13:56:59;14.33;;;7.37;;
72584;SDS011;73873;40.084;32.908;2024-03-08T13:59:26;14.40;;;7.18;;
72584;SDS011;73873;40.084;32.908;2024-03-08T14:01:53;14.18;;;6.88;;
72584;SDS011;73873;40.084;32.908;2024-03-08T14:04:22;14.13;;;7.22;;
72584;SDS011;73873;40.084;32.908;2024-03-08T14:06:49;14.43;;;6.85;;
72584;SDS011;73873;40.084;32.908;2024-03-08T14:09:16;13.67;;;6.53;;
72584;SDS011;73873;40.084;32.908;2024-03-08T14:11:43;15.85;;;6.72;;
72584;SDS011;73873;40.084;32.908;2024-03-08T14:14:10;13.50;;;5.95;;
72584;SDS011;73873;40.084;32.908;2024-03-08T14:16:38;13.50;;;5.95;;
72584;SDS011;73873;40.084;32.908;2024-03-08T14:19:06;13.02;;;6.00;;
72584;SDS011;73873;40.084;32.908;2024-03-08T14:21:32;14.80;;;6.17;;
72584;SDS011;73873;40.084;32.908;2024-03-08T14:23:59;12.63;;;5.88;;
72584;SDS011;73873;40.084;32.908;2024-03-08T14:26:26;13.00;;;5.43;;